Adrian, MI (49221)

2:18 PM EDT on May 28, 2017 (GMT -0400)
south adrian | | Change Station

Elev 240 ft 41.88 °N, 84.04 °W | Updated 17 seconds ago

Mostly Cloudy
Mostly Cloudy
83.5 °F
Feels Like 85 °F
N
3.0
Wind Variable Wind from South

Today
High -- | Low -- °F
--% Chance of Precip.
Yesterday
High -- | Low -- °F
Precip. -- in
Pressure 29.71 in
Visibility 10.0 miles
Clouds Scattered Clouds 3000 ft
Scattered Clouds 5500 ft
Mostly Cloudy 7500 ft
Heat Index 85 °F
Dew Point 63 °F
Humidity 50%
Rainfall 0.00 in
Snow Depth Not available.
6:05 AM 9:02 PM
Waxing Crescent, 13% visible
METAR KADG 281753Z AUTO 15007KT 120V190 10SM SCT030 SCT055 BKN075 24/18 A2971 RMK AO2 SLP060 T02440183 10244 20156 58010 TSNO
Pressure 29.71 in
Visibility 10.0 miles
Clouds Scattered Clouds 3000 ft
Scattered Clouds 5500 ft
Mostly Cloudy 7500 ft
Heat Index 85 °F
Dew Point 63 °F
Humidity 50%
Rainfall 0.00 in
Snow Depth Not available.
6:05 AM 9:02 PM
Waxing Crescent, 13% visible
METAR KADG 281753Z AUTO 15007KT 120V190 10SM SCT030 SCT055 BKN075 24/18 A2971 RMK AO2 SLP060 T02440183 10244 20156 58010 TSNO

Get Your Daily Forecast Email!

Thanks for signing up!

Be on the lookout for a verification email in your inbox.

You'll start receiving severe weather alerts in your inbox..

×

10-Day Weather Forecast

Almanac

Astronomy

May. 28, 2017 Rise Set
Actual Time
Civil Twilight
Nautical Twilight
Astronomical Twilight
Moon
Length of Visible Light
Length of Day
Tomorrow will be .
, % of the Moon is Illuminated

Today's Extremes

State Highs State Lows

Community

WunderPhotos

Category 6

Welcome to Category 6. This is the collective home for Weather Underground's featured writeups by Dr. Jeff Masters (right), Bob Henson (left), Chris Burt, and other regular contributors.

Nearby

Air Quality

  Air Quality AQ Index Pollutant
Not available.

Snow Depth

Station Depth Elevation

Earthquake Activity

City Distance Mag. Time & Date
Minimum magnitude displayed is 2.5.

Coastal Water Temperatures

Place Temperature

Stations

Nearby Weather Stations

Station Location Temp. Windchill Dew Point Humidity Wind Precip. Elev Updated Type
                   

Watches & Warnings

Severe Thunderstorm Watch
Issued: 2:03 PM EDT May. 28, 2017 – National Weather Service

Severe Thunderstorm Watch 292 remains in effect until 800 PM EDT

Mi
. Michigan counties included are

Barry branch Calhoun
Cass Eaton Hillsdale
Ingham Jackson Kalamazoo
Lenawee Livingston Macomb
Monroe Oakland St. Joseph
Washtenaw Wayne